createdAt,value
2022-11-29T00:01:21.198Z,101221.75
2022-11-29T00:03:48.322Z,101181.75
2022-11-29T00:06:17.964Z,101234.69
2022-11-29T00:08:45.778Z,101220.13
2022-11-29T00:11:35.928Z,101209.78
2022-11-29T00:14:03.047Z,101145.13
2022-11-29T00:16:30.145Z,101104.50
2022-11-29T00:18:57.096Z,101162.25
2022-11-29T00:21:24.218Z,101211.47
2022-11-29T00:24:11.899Z,101032.09
2022-11-29T00:27:13.829Z,101072.97
2022-11-29T00:29:54.379Z,101083.03
2022-11-29T00:32:21.596Z,101053.72
2022-11-29T00:35:09.938Z,101041.91
2022-11-29T00:37:51.149Z,101175.50
2022-11-29T00:40:18.313Z,101150.59
2022-11-29T00:43:05.867Z,101201.13
2022-11-29T00:45:46.464Z,101205.56
2022-11-29T00:48:13.402Z,101157.94
2022-11-29T00:50:40.493Z,101071.41
2022-11-29T00:53:27.845Z,101132.06
2022-11-29T00:56:28.837Z,101189.56
2022-11-29T00:59:19.485Z,101136.41
2022-11-29T01:01:46.509Z,101077.38
2022-11-29T01:04:13.576Z,101102.81
2022-11-29T01:06:40.856Z,101090.97
2022-11-29T01:09:07.997Z,101203.06
2022-11-29T01:11:35.559Z,101029.84
2022-11-29T01:14:04.884Z,101099.28
2022-11-29T01:16:32.951Z,100988.78
2022-11-29T01:19:00.570Z,101105.97
2022-11-29T01:21:27.717Z,101214.94
2022-11-29T01:23:55.201Z,101204.03
2022-11-29T01:26:43.895Z,101161.66
2022-11-29T01:29:24.780Z,101132.72
2022-11-29T01:31:51.720Z,101084.72
2022-11-29T01:34:38.899Z,101085.84
2022-11-29T01:37:19.524Z,101154.72
2022-11-29T01:39:46.634Z,101172.47
2022-11-29T01:42:33.879Z,100987.38
2022-11-29T01:45:23.293Z,101137.81
2022-11-29T01:47:55.180Z,101147.56
2022-11-29T01:50:22.320Z,101183.00
2022-11-29T01:52:49.598Z,101173.72
2022-11-29T01:55:16.967Z,101107.25
2022-11-29T01:57:44.460Z,101165.06
2022-11-29T02:00:16.125Z,101164.69
2022-11-29T02:03:07.435Z,101176.66
2022-11-29T02:05:57.894Z,101178.94
2022-11-29T02:08:58.921Z,101098.28
2022-11-29T02:11:49.188Z,101014.47
2022-11-29T02:14:28.282Z,101169.75
2022-11-29T02:16:56.803Z,101161.19
2022-11-29T02:19:36.015Z,101099.56
2022-11-29T02:22:10.727Z,101072.22
2022-11-29T02:24:56.277Z,101143.88
2022-11-29T02:27:57.096Z,101142.78
2022-11-29T02:30:37.579Z,101124.28
2022-11-29T02:33:48.900Z,101143.66
2022-11-29T02:37:08.567Z,101095.75
2022-11-29T02:39:57.607Z,101145.94
2022-11-29T02:43:04.878Z,101128.03
2022-11-29T02:46:19.158Z,101145.47
2022-11-29T02:49:03.102Z,101141.56
2022-11-29T02:52:00.922Z,101117.91
2022-11-29T02:54:50.443Z,101100.97
2022-11-29T02:57:23.502Z,101123.75
2022-11-29T03:00:05.341Z,101136.59
2022-11-29T03:03:30.944Z,101142.88
2022-11-29T03:06:12.197Z,101134.81
2022-11-29T03:09:00.876Z,101146.97
2022-11-29T03:11:53.152Z,101140.22
2022-11-29T03:14:52.894Z,101136.63
2022-11-29T03:18:19.950Z,101131.75
2022-11-29T03:21:26.977Z,101005.13
2022-11-29T03:24:26.122Z,101139.38
2022-11-29T03:27:04.178Z,101130.94
2022-11-29T03:29:40.614Z,101123.16
2022-11-29T03:32:27.425Z,101146.75
2022-11-29T03:35:28.935Z,101151.66
2022-11-29T03:38:32.976Z,101152.91
2022-11-29T03:41:57.973Z,101141.41
2022-11-29T03:45:14.944Z,101125.56
2022-11-29T03:48:07.663Z,101146.56
2022-11-29T03:50:49.743Z,101134.41
2022-11-29T03:53:37.184Z,101064.25
2022-11-29T03:56:41.888Z,101134.03
2022-11-29T03:59:37.237Z,101070.34
2022-11-29T04:02:42.028Z,101130.75
2022-11-29T04:05:53.528Z,101133.59
2022-11-29T04:08:51.392Z,101139.19
2022-11-29T04:11:30.460Z,101135.59
2022-11-29T04:14:26.849Z,100971.31
2022-11-29T04:17:31.964Z,101143.09
2022-11-29T04:21:00.039Z,101150.25
2022-11-29T04:24:02.320Z,101155.72
2022-11-29T04:26:38.315Z,101111.59
2022-11-29T04:29:30.929Z,101088.22
2022-11-29T04:32:34.631Z,101070.22
2022-11-29T04:35:27.990Z,101144.53
2022-11-29T04:38:45.418Z,101144.22
2022-11-29T04:42:00.023Z,101001.38
2022-11-29T04:45:12.000Z,101146.75
2022-11-29T04:48:18.297Z,101153.81
2022-11-29T04:51:04.044Z,101153.16
2022-11-29T04:53:40.786Z,101052.81
2022-11-29T04:56:53.002Z,101049.03
2022-11-29T05:00:06.422Z,101161.50
2022-11-29T05:03:08.887Z,101106.53
2022-11-29T05:06:06.290Z,101090.53
2022-11-29T05:08:36.234Z,101170.06
2022-11-29T05:11:23.441Z,101162.41
2022-11-29T05:13:59.086Z,101169.56
2022-11-29T05:16:44.909Z,101158.22
2022-11-29T05:19:19.081Z,101023.19
2022-11-29T05:21:58.236Z,101168.97
2022-11-29T05:24:44.262Z,101176.84
2022-11-29T05:27:42.309Z,101165.16
2022-11-29T05:30:22.242Z,101147.97
2022-11-29T05:33:11.967Z,101164.88
2022-11-29T05:36:58.005Z,101164.09
2022-11-29T05:39:50.809Z,101168.97
2022-11-29T05:42:50.009Z,101179.03
2022-11-29T05:46:08.350Z,101160.09
2022-11-29T05:48:53.453Z,101172.88
2022-11-29T05:51:22.449Z,101185.19
2022-11-29T05:54:16.039Z,101173.84
2022-11-29T05:56:47.577Z,101164.09
2022-11-29T05:59:21.900Z,101183.03
2022-11-29T06:02:27.193Z,101164.19
2022-11-29T06:05:42.028Z,101146.78
2022-11-29T06:09:16.792Z,101171.56
2022-11-29T06:12:06.148Z,101071.00
2022-11-29T06:15:13.748Z,101161.09
2022-11-29T06:18:32.049Z,101163.59
2022-11-29T06:21:40.273Z,101088.63
2022-11-29T06:24:13.274Z,101164.47
2022-11-29T06:26:49.286Z,101172.25
2022-11-29T06:29:51.014Z,101170.06
2022-11-29T06:32:44.157Z,101164.28
2022-11-29T06:35:56.032Z,101089.94
2022-11-29T06:38:57.029Z,101167.47
2022-11-29T06:41:58.025Z,101093.81
2022-11-29T06:44:59.002Z,101076.28
2022-11-29T06:47:49.204Z,101190.97
2022-11-29T06:51:07.099Z,101106.53
2022-11-29T06:54:11.160Z,101188.69
2022-11-29T06:57:02.916Z,101192.38
2022-11-29T06:59:39.089Z,101133.13
2022-11-29T07:02:45.056Z,101109.94
2022-11-29T07:05:28.766Z,101200.72
2022-11-29T07:08:01.789Z,101216.88
2022-11-29T07:10:32.553Z,101197.97
2022-11-29T07:13:00.046Z,101101.25
2022-11-29T07:15:28.243Z,101114.88
2022-11-29T07:18:10.767Z,101200.16
2022-11-29T07:21:08.241Z,101201.13
2022-11-29T07:23:45.572Z,101200.53
2022-11-29T07:26:35.314Z,101114.88
2022-11-29T07:29:24.309Z,101216.16
2022-11-29T07:32:27.035Z,101199.03
2022-11-29T07:35:20.371Z,101205.69
2022-11-29T07:38:41.065Z,101215.16
2022-11-29T07:42:05.179Z,101208.28
2022-11-29T07:45:24.566Z,101204.50
2022-11-29T07:47:52.210Z,101173.34
2022-11-29T07:50:21.406Z,101191.81
2022-11-29T07:52:49.309Z,101149.41
2022-11-29T07:55:38.011Z,101207.28
2022-11-29T07:58:05.407Z,101212.84
2022-11-29T08:01:01.080Z,101170.03
2022-11-29T08:04:02.118Z,101147.72
2022-11-29T08:07:03.120Z,101199.03
2022-11-29T08:10:04.119Z,101219.16
2022-11-29T08:13:05.097Z,101185.78
2022-11-29T08:16:06.104Z,101218.69
2022-11-29T08:19:07.083Z,101091.38
2022-11-29T08:21:48.330Z,101142.59
2022-11-29T08:24:15.298Z,101229.72
2022-11-29T08:26:42.343Z,101115.19
2022-11-29T08:29:09.313Z,101199.03
2022-11-29T08:31:41.695Z,101005.19
2022-11-29T08:34:37.131Z,101230.84
2022-11-29T08:37:31.379Z,101216.97
2022-11-29T08:40:12.603Z,101229.63
2022-11-29T08:43:00.110Z,101104.75
2022-11-29T08:46:06.178Z,101209.00
2022-11-29T08:48:48.025Z,101191.78
2022-11-29T08:51:35.117Z,101200.53
2022-11-29T08:54:36.180Z,101246.44
2022-11-29T08:57:40.194Z,101149.75
2022-11-29T09:00:21.635Z,101222.66
2022-11-29T09:02:48.885Z,101257.41
2022-11-29T09:05:16.028Z,101147.44
2022-11-29T09:07:43.612Z,101129.63
2022-11-29T09:10:11.444Z,101179.72
2022-11-29T09:12:41.565Z,101111.44
2022-11-29T09:15:10.358Z,101262.91
2022-11-29T09:17:37.858Z,101257.91
2022-11-29T09:23:01.478Z,101211.56
2022-11-29T09:25:34.885Z,101185.25
2022-11-29T09:28:12.193Z,101311.84
2022-11-29T09:30:41.472Z,101189.59
2022-11-29T09:33:30.175Z,101286.63
2022-11-29T09:36:28.849Z,101270.50
2022-11-29T09:39:03.067Z,101225.63
2022-11-29T09:42:11.243Z,101260.84
2022-11-29T09:45:04.175Z,101089.81
2022-11-29T09:47:53.262Z,101267.38
2022-11-29T09:50:43.186Z,101088.69
2022-11-29T09:53:28.993Z,101223.53
2022-11-29T09:56:11.408Z,101268.09
2022-11-29T09:58:47.620Z,101249.28
2022-11-29T10:01:22.055Z,101279.81
2022-11-29T10:04:19.209Z,101270.94
2022-11-29T10:08:01.205Z,101272.81
2022-11-29T10:10:50.553Z,101138.69
2022-11-29T10:13:25.424Z,101156.25
2022-11-29T10:16:01.945Z,101155.72
2022-11-29T10:18:34.669Z,101242.34
2022-11-29T10:21:12.870Z,100957.91
2022-11-29T10:23:51.227Z,101264.22
2022-11-29T10:26:20.866Z,101190.72
2022-11-29T10:28:49.488Z,101149.69
2022-11-29T10:31:36.523Z,101262.31
2022-11-29T10:34:35.283Z,101220.41
2022-11-29T10:37:24.267Z,101266.88
2022-11-29T10:39:58.758Z,101168.75
2022-11-29T10:43:01.149Z,101248.41
2022-11-29T10:45:56.100Z,101226.56
2022-11-29T10:48:32.329Z,101225.84
2022-11-29T10:51:31.452Z,101253.28
2022-11-29T10:54:33.867Z,101188.22
2022-11-29T10:57:02.433Z,101195.06
2022-11-29T10:59:49.219Z,101166.41
2022-11-29T11:02:50.165Z,101118.63
2022-11-29T11:05:40.199Z,101142.25
2022-11-29T11:08:44.190Z,101162.56
2022-11-29T11:11:46.150Z,101152.19
2022-11-29T11:14:33.225Z,101209.75
2022-11-29T11:17:30.130Z,101185.50
2022-11-29T11:20:34.232Z,101231.53
2022-11-29T11:23:27.336Z,101248.25
2022-11-29T11:26:14.902Z,101186.19
2022-11-29T11:29:00.489Z,101240.66
2022-11-29T11:31:38.057Z,101235.69
2022-11-29T11:34:46.470Z,101243.06
2022-11-29T11:37:32.443Z,101144.88
2022-11-29T11:40:18.382Z,101178.28
2022-11-29T11:43:05.290Z,101156.63
2022-11-29T11:45:53.596Z,101232.81
2022-11-29T11:48:22.189Z,101192.09
2022-11-29T11:50:56.397Z,101174.47
2022-11-29T11:53:31.945Z,101240.56
2022-11-29T11:56:26.197Z,101213.81
2022-11-29T11:59:14.486Z,101205.53
2022-11-29T12:01:41.461Z,101173.22
2022-11-29T12:04:33.489Z,101240.31
2022-11-29T12:07:45.213Z,101246.91
2022-11-29T12:10:19.967Z,101135.81
2022-11-29T12:12:49.324Z,101224.66
2022-11-29T12:15:32.468Z,101224.53
2022-11-29T12:18:34.263Z,101250.00
2022-11-29T12:21:41.312Z,101250.19
2022-11-29T12:24:36.394Z,101163.16
2022-11-29T12:27:06.165Z,101250.25
2022-11-29T12:29:36.815Z,101247.19
2022-11-29T12:32:10.182Z,101182.47
2022-11-29T12:35:31.222Z,101187.78
2022-11-29T12:38:34.358Z,101246.66
2022-11-29T12:41:41.250Z,101173.97
2022-11-29T12:44:31.080Z,101217.09
2022-11-29T12:47:36.083Z,101123.81
2022-11-29T12:50:42.318Z,101236.44
2022-11-29T12:54:01.253Z,101239.09
2022-11-29T12:57:09.282Z,101239.59
2022-11-29T13:00:14.712Z,101234.97
2022-11-29T13:02:52.977Z,101241.84
2022-11-29T13:06:00.241Z,101157.22
2022-11-29T13:09:01.233Z,101244.09
2022-11-29T13:11:53.183Z,101256.19
2022-11-29T13:14:45.383Z,101224.56
2022-11-29T13:17:20.769Z,101255.88
2022-11-29T13:19:58.423Z,101241.63
2022-11-29T13:22:30.883Z,101241.78
2022-11-29T13:25:01.594Z,101231.22
2022-11-29T13:27:37.165Z,101151.94
2022-11-29T13:30:05.203Z,101244.66
2022-11-29T13:32:36.409Z,101245.94
2022-11-29T13:35:33.619Z,101175.19
2022-11-29T13:38:49.254Z,101152.81
2022-11-29T13:42:24.265Z,101241.94
2022-11-29T13:45:17.166Z,101248.44
2022-11-29T13:48:09.249Z,101245.59
2022-11-29T13:51:11.290Z,101241.41
2022-11-29T13:53:53.032Z,101223.56
2022-11-29T13:56:54.269Z,101174.47
2022-11-29T14:00:02.278Z,101177.38
2022-11-29T14:02:42.901Z,101192.72
2022-11-29T14:05:25.900Z,101262.22
2022-11-29T14:08:27.314Z,101247.63
2022-11-29T14:11:04.002Z,101116.16
2022-11-29T14:13:47.853Z,101202.47
2022-11-29T14:16:52.315Z,101239.44
2022-11-29T14:19:53.275Z,101144.03
2022-11-29T14:23:19.306Z,101204.13
2022-11-29T14:26:00.743Z,101257.28
2022-11-29T14:28:29.932Z,101199.34
2022-11-29T14:31:07.768Z,101160.78
2022-11-29T14:34:10.406Z,101261.66
2022-11-29T14:37:28.393Z,101170.28
2022-11-29T14:40:17.942Z,101270.13
2022-11-29T14:43:07.385Z,101180.75
2022-11-29T14:46:30.471Z,101260.47
2022-11-29T14:49:40.357Z,101243.88
2022-11-29T14:52:45.290Z,101272.81
2022-11-29T14:55:50.303Z,101255.09
2022-11-29T14:58:31.045Z,101252.38
2022-11-29T15:01:06.624Z,101242.00
2022-11-29T15:03:45.382Z,101258.66
2022-11-29T15:06:27.310Z,101156.38
2022-11-29T15:08:57.588Z,101254.47
2022-11-29T15:11:33.976Z,101255.16
2022-11-29T15:14:24.260Z,101262.16
2022-11-29T15:16:58.552Z,101142.28
2022-11-29T15:19:40.647Z,101263.06
2022-11-29T15:22:27.779Z,101226.34
2022-11-29T15:25:12.335Z,101256.78
2022-11-29T15:27:57.403Z,101253.63
2022-11-29T15:30:39.167Z,101245.75
2022-11-29T15:33:22.341Z,101268.25
2022-11-29T15:36:24.339Z,101171.84
2022-11-29T15:39:11.406Z,101272.53
2022-11-29T15:42:17.357Z,101240.63
2022-11-29T15:45:29.638Z,101272.97
2022-11-29T15:48:44.296Z,101264.00
2022-11-29T15:51:37.122Z,101193.59
2022-11-29T15:54:13.026Z,101282.44
2022-11-29T15:56:56.021Z,101228.41
2022-11-29T15:59:31.991Z,101207.84
2022-11-29T16:02:05.704Z,101282.25
2022-11-29T16:04:33.187Z,101207.38
2022-11-29T16:07:20.524Z,101212.75
2022-11-29T16:10:12.763Z,101208.88
2022-11-29T16:12:53.828Z,101252.53
2022-11-29T16:15:40.424Z,101280.31
2022-11-29T16:18:26.351Z,101111.47
2022-11-29T16:21:05.983Z,101288.69
2022-11-29T16:23:56.374Z,101143.09
2022-11-29T16:26:41.949Z,101273.88
2022-11-29T16:29:30.799Z,101247.56
2022-11-29T16:31:58.243Z,101184.56
2022-11-29T16:34:45.691Z,101290.84
2022-11-29T16:37:55.388Z,101259.16
2022-11-29T16:40:49.330Z,101232.25
2022-11-29T16:44:02.534Z,101289.66
2022-11-29T16:46:55.648Z,101286.75
2022-11-29T16:49:34.938Z,101274.19
2022-11-29T16:52:03.890Z,101301.53
2022-11-29T16:54:34.304Z,101191.75
2022-11-29T16:57:06.682Z,101271.22
2022-11-29T16:59:35.372Z,101151.53
2022-11-29T17:02:26.472Z,101319.28
2022-11-29T17:05:07.305Z,101262.47
2022-11-29T17:07:38.232Z,101195.53
2022-11-29T17:10:08.398Z,101309.03
2022-11-29T17:12:35.583Z,101302.84
2022-11-29T17:15:02.696Z,101283.03
2022-11-29T17:17:50.364Z,101080.25
2022-11-29T17:20:31.104Z,101224.72
2022-11-29T17:22:58.091Z,101129.81
2022-11-29T17:25:25.118Z,101307.13
2022-11-29T17:27:52.373Z,101271.16
2022-11-29T17:30:39.379Z,101245.84
2022-11-29T17:33:43.329Z,101303.25
2022-11-29T17:36:51.427Z,101311.53
2022-11-29T17:39:32.642Z,101211.28
2022-11-29T17:42:19.407Z,101225.72
2022-11-29T17:45:00.036Z,101230.97
2022-11-29T17:47:26.967Z,101294.34
2022-11-29T17:49:53.921Z,101304.91
2022-11-29T17:52:20.952Z,101151.00
2022-11-29T17:54:47.861Z,101230.06
2022-11-29T17:57:14.888Z,101287.59
2022-11-29T17:59:41.870Z,101215.25
2022-11-29T18:02:29.460Z,101295.00
2022-11-29T18:05:23.620Z,101234.00
2022-11-29T18:08:17.390Z,101177.59
2022-11-29T18:11:13.650Z,101295.38
2022-11-29T18:13:40.735Z,101322.09
2022-11-29T18:16:13.863Z,101282.63
2022-11-29T18:18:41.515Z,101244.34
2022-11-29T18:21:10.147Z,101275.53
2022-11-29T18:23:39.823Z,101320.47
2022-11-29T18:26:11.489Z,101286.69
2022-11-29T18:28:58.387Z,101325.56
2022-11-29T18:32:00.406Z,101336.75
2022-11-29T18:34:40.942Z,101301.06
2022-11-29T18:37:12.355Z,101335.44
2022-11-29T18:39:42.401Z,101301.75
2022-11-29T18:42:29.415Z,101297.47
2022-11-29T18:45:10.324Z,101327.84
2022-11-29T18:47:57.461Z,101328.56
2022-11-29T18:50:38.019Z,101288.88
2022-11-29T18:53:04.862Z,101307.31
2022-11-29T18:55:32.057Z,101354.75
2022-11-29T18:57:58.960Z,101270.03
2022-11-29T19:00:25.999Z,101146.66
2022-11-29T19:02:53.389Z,101309.81
2022-11-29T19:05:20.285Z,101354.34
2022-11-29T19:08:07.541Z,101248.66
2022-11-29T19:11:08.425Z,101277.56
2022-11-29T19:14:04.064Z,101283.06
2022-11-29T19:16:34.516Z,101299.13
2022-11-29T19:19:02.119Z,101348.53
2022-11-29T19:21:32.017Z,101352.69
2022-11-29T19:24:21.390Z,101318.19
2022-11-29T19:27:03.240Z,101225.94
2022-11-29T19:29:50.640Z,101303.91
2022-11-29T19:32:51.447Z,101273.19
2022-11-29T19:35:32.010Z,101329.78
2022-11-29T19:37:59.098Z,101356.75
2022-11-29T19:40:26.473Z,101294.22
2022-11-29T19:43:13.463Z,101349.72
2022-11-29T19:45:54.076Z,101316.88
2022-11-29T19:48:21.306Z,101326.56
2022-11-29T19:50:48.247Z,101326.03
2022-11-29T19:53:16.150Z,101281.03
2022-11-29T19:55:44.247Z,101297.34
2022-11-29T19:58:31.440Z,101286.66
2022-11-29T20:01:42.879Z,101351.34
2022-11-29T20:04:44.445Z,101344.38
2022-11-29T20:07:28.740Z,101359.53
2022-11-29T20:09:55.690Z,101279.47
2022-11-29T20:12:22.848Z,101329.31
2022-11-29T20:15:09.481Z,101335.13
2022-11-29T20:18:11.440Z,101318.53
2022-11-29T20:21:26.545Z,101384.56
2022-11-29T20:24:07.869Z,101317.28
2022-11-29T20:26:38.213Z,101380.97
2022-11-29T20:29:08.320Z,101382.88
2022-11-29T20:31:56.534Z,101334.69
2022-11-29T20:34:57.452Z,101369.06
2022-11-29T20:38:03.465Z,101320.56
2022-11-29T20:41:02.647Z,101376.50
2022-11-29T20:43:58.008Z,101285.81
2022-11-29T20:46:25.987Z,101280.94
2022-11-29T20:48:54.208Z,101376.34
2022-11-29T20:51:36.874Z,101319.81
2022-11-29T20:54:03.973Z,101354.63
2022-11-29T20:56:30.862Z,101354.34
2022-11-29T20:58:57.971Z,101277.47
2022-11-29T21:01:47.546Z,101332.06
2022-11-29T21:04:48.766Z,101238.94
2022-11-29T21:07:49.731Z,101383.19
2022-11-29T21:10:50.597Z,101398.94
2022-11-29T21:13:34.436Z,101384.53
2022-11-29T21:16:02.259Z,101383.22
2022-11-29T21:18:33.682Z,101382.00
2022-11-29T21:21:16.090Z,101288.00
2022-11-29T21:24:07.490Z,101368.53
2022-11-29T21:26:41.937Z,101374.78
2022-11-29T21:29:14.911Z,101368.53
2022-11-29T21:32:07.513Z,101363.84
2022-11-29T21:35:08.508Z,101349.88
2022-11-29T21:38:12.517Z,101367.22
2022-11-29T21:41:13.489Z,101315.25
2022-11-29T21:44:08.265Z,101295.84
2022-11-29T21:47:09.512Z,101310.31
2022-11-29T21:49:52.650Z,101371.81
2022-11-29T21:52:22.773Z,101357.75
2022-11-29T21:54:50.239Z,101262.69
2022-11-29T21:57:17.190Z,101266.81
2022-11-29T21:59:44.218Z,101331.25
2022-11-29T22:02:11.272Z,101308.91
2022-11-29T22:04:38.312Z,101359.56
2022-11-29T22:07:05.315Z,101292.22
2022-11-29T22:09:52.641Z,101331.59
2022-11-29T22:12:34.901Z,101276.00
2022-11-29T22:15:25.063Z,101259.88
2022-11-29T22:18:26.590Z,101339.88
2022-11-29T22:21:08.830Z,101333.44
2022-11-29T22:23:36.328Z,101361.28
2022-11-29T22:26:07.434Z,101337.75
2022-11-29T22:28:37.167Z,101361.56
2022-11-29T22:31:07.448Z,101361.31
2022-11-29T22:33:34.870Z,101356.41
2022-11-29T22:36:11.099Z,101276.47
2022-11-29T22:38:58.865Z,101348.28
2022-11-29T22:41:59.651Z,101349.28
2022-11-29T22:44:40.090Z,101319.94
2022-11-29T22:47:07.189Z,101248.94
2022-11-29T22:49:35.921Z,101317.09
2022-11-29T22:52:24.775Z,101352.88
2022-11-29T22:55:06.621Z,101207.34
2022-11-29T22:57:33.885Z,101284.78
2022-11-29T23:00:22.575Z,101350.81
2022-11-29T23:03:23.550Z,101247.09
2022-11-29T23:06:17.485Z,101342.25
2022-11-29T23:08:47.105Z,101334.03
2022-11-29T23:11:17.007Z,101256.50
2022-11-29T23:13:44.567Z,101344.22
2022-11-29T23:16:34.573Z,101251.34
2022-11-29T23:19:36.530Z,101290.59
2022-11-29T23:22:38.543Z,101308.72
2022-11-29T23:25:19.077Z,101311.50
2022-11-29T23:27:45.978Z,101256.19
2022-11-29T23:30:13.686Z,101282.31
2022-11-29T23:32:40.557Z,101159.88
2022-11-29T23:35:27.566Z,101259.41
2022-11-29T23:38:08.343Z,101339.84
2022-11-29T23:40:35.423Z,101220.06
2022-11-29T23:43:36.613Z,101346.81
2022-11-29T23:46:30.726Z,101316.25
2022-11-29T23:49:11.255Z,101260.03
2022-11-29T23:51:38.243Z,101257.41
2022-11-29T23:54:05.331Z,101224.41
2022-11-29T23:56:35.456Z,101292.22
2022-11-29T23:59:02.660Z,101274.63
